map of PHY home
Great Circle Mapper logo
PHY - Airport
Location
City:  Phetchabun, Phetchabun, Thailand
ICAO:VTPB
IATA:PHY

Details
Type:Airport (Aerodrome, Airfield)
Latitude:1640'34"N (16.676028)
Longitude:10111'42"E (101.195108)
Datum:WGS 1984
Elevation:450 ft (137 m)
Variation:0.75W (WMM2015 magnetic declination)
0.00 annual change
Runways:1
Longest:6890 × 148 ft (2100 × 45 m), paved

Time
Time Zone:UTC+7
Local Time:

Weather
METAR:VTPB 300600Z AUTO 19006KT 150V250 9999 // ////// 28/25 Q1007
TAF:VTPB 302300Z 0100/0124 20005KT 9999 BKN035
TEMPO 0108/0113 20015G25KT 5000 TSRA FEW025CB BKN030

Related Locations
Nearby:
Farthest:SJA: 12186 mi / 19612 km
San Juan de Marcona [San Juan de Marcona Airport], ICA, PE

Find:

   beyond  
but within

Other Information
Maps:
NOTAMs:
Links:
Sources:

  
flag of Thailand   

Sectional Chart

Flight Planning
at skyvector.com

Satellite Image

Google Maps Satellite view

 

Copyright © 2004-2016 Karl L. Swartz. All rights reserved.
The Great Circle Mapper name and logo are trademarks of the Great Circle Mapper.
All other trademarks mentioned herein belong to their respective owners.
Please see credits for attibutions and further copyright information.

  Follow gcmap on Facebook Follow gcmap on Twitter Follow gcmap on Google+ GCmap on LinkedIn

hCard Microformat

Geo Microformat